createdAt,value
2019-05-20T00:01:01.792Z,99.90
2019-05-20T00:03:34.329Z,99.90
2019-05-20T00:06:05.111Z,99.90
2019-05-20T00:08:36.263Z,99.90
2019-05-20T00:11:07.401Z,99.90
2019-05-20T00:13:38.018Z,99.90
2019-05-20T00:16:08.734Z,99.90
2019-05-20T00:18:39.637Z,99.90
2019-05-20T00:21:10.058Z,99.90
2019-05-20T00:23:40.419Z,99.90
2019-05-20T00:26:11.199Z,99.90
2019-05-20T00:28:42.130Z,99.90
2019-05-20T00:31:12.612Z,99.90
2019-05-20T00:33:43.040Z,99.90
2019-05-20T00:36:15.265Z,99.90
2019-05-20T00:38:48.644Z,99.90
2019-05-20T00:41:18.962Z,99.90
2019-05-20T00:43:49.361Z,99.90
2019-05-20T00:46:19.782Z,99.90
2019-05-20T00:48:50.555Z,99.90
2019-05-20T00:51:21.055Z,99.90
2019-05-20T00:53:51.652Z,99.90
2019-05-20T00:56:22.139Z,99.90
2019-05-20T00:58:52.466Z,99.90
2019-05-20T01:01:22.906Z,99.90
2019-05-20T01:03:53.565Z,99.90
2019-05-20T01:06:23.965Z,99.90
2019-05-20T01:08:54.398Z,99.90
2019-05-20T01:11:25.939Z,99.90
2019-05-20T01:13:56.532Z,99.90
2019-05-20T01:16:27.320Z,99.90
2019-05-20T01:18:57.585Z,99.90
2019-05-20T01:21:30.145Z,99.90
2019-05-20T01:24:00.565Z,99.90
2019-05-20T01:26:31.191Z,99.90
2019-05-20T01:29:01.726Z,99.90
2019-05-20T01:31:32.164Z,99.90
2019-05-20T01:34:02.699Z,99.90
2019-05-20T01:36:33.074Z,99.90
2019-05-20T01:39:05.410Z,99.90
2019-05-20T01:41:37.196Z,99.90
2019-05-20T01:44:07.787Z,99.90
2019-05-20T01:46:38.394Z,99.90
2019-05-20T01:49:08.863Z,99.90
2019-05-20T01:51:40.354Z,99.90
2019-05-20T01:54:11.161Z,99.90
2019-05-20T01:56:41.476Z,99.90
2019-05-20T01:59:12.386Z,99.90
2019-05-20T02:01:43.040Z,99.90
2019-05-20T02:04:13.665Z,99.90
2019-05-20T02:06:44.010Z,99.90
2019-05-20T02:09:15.014Z,99.90
2019-05-20T02:11:45.535Z,99.90
2019-05-20T02:14:21.281Z,99.90
2019-05-20T02:16:51.921Z,99.90
2019-05-20T02:23:16.075Z,99.90
2019-05-20T02:25:51.761Z,99.90
2019-05-20T02:28:22.339Z,99.90
2019-05-20T02:30:56.712Z,99.90
2019-05-20T02:33:24.607Z,99.90
2019-05-20T02:35:55.208Z,99.90
2019-05-20T02:38:25.624Z,99.90
2019-05-20T02:40:56.314Z,99.90
2019-05-20T02:43:27.989Z,99.90
2019-05-20T02:45:59.234Z,99.90
2019-05-20T02:48:29.698Z,99.90
2019-05-20T02:51:00.331Z,99.90
2019-05-20T02:53:30.689Z,99.90
2019-05-20T02:56:01.186Z,99.90
2019-05-20T02:58:31.751Z,99.90
2019-05-20T03:01:02.175Z,99.90
2019-05-20T03:03:32.512Z,99.90
2019-05-20T03:06:03.399Z,99.90
2019-05-20T03:08:34.366Z,99.90
2019-05-20T03:11:05.327Z,99.90
2019-05-20T03:13:35.884Z,99.90
2019-05-20T03:16:06.602Z,99.90
2019-05-20T03:18:38.137Z,99.90
2019-05-20T03:21:09.159Z,99.90
2019-05-20T03:23:39.432Z,99.90
2019-05-20T03:26:13.635Z,99.90
2019-05-20T03:28:44.045Z,99.90
2019-05-20T03:31:14.531Z,99.90
2019-05-20T03:33:45.039Z,99.90
2019-05-20T03:36:15.611Z,99.90
2019-05-20T03:38:46.612Z,99.90
2019-05-20T03:41:17.101Z,99.90
2019-05-20T03:43:47.901Z,99.90
2019-05-20T03:46:18.276Z,99.90
2019-05-20T03:48:49.199Z,99.90
2019-05-20T03:51:19.584Z,99.90
2019-05-20T03:53:50.074Z,99.90
2019-05-20T03:56:22.137Z,99.90
2019-05-20T03:58:52.506Z,99.90
2019-05-20T04:01:22.972Z,99.90
2019-05-20T04:03:53.463Z,99.90
2019-05-20T04:06:23.870Z,99.90
2019-05-20T04:08:54.282Z,99.90
2019-05-20T04:11:24.641Z,99.90
2019-05-20T04:13:55.158Z,99.90
2019-05-20T04:16:25.586Z,99.90
2019-05-20T04:18:56.060Z,99.90
2019-05-20T04:21:27.598Z,99.90
2019-05-20T04:24:01.351Z,99.90
2019-05-20T04:26:31.532Z,99.90
2019-05-20T04:29:02.564Z,99.90
2019-05-20T04:31:32.958Z,99.90
2019-05-20T04:34:03.555Z,99.90
2019-05-20T04:36:33.927Z,99.90
2019-05-20T04:39:05.839Z,99.90
2019-05-20T04:41:36.703Z,99.90
2019-05-20T04:44:07.262Z,99.90
2019-05-20T04:46:38.005Z,99.90
2019-05-20T04:49:08.458Z,99.90
2019-05-20T04:51:39.948Z,99.90
2019-05-20T04:54:12.222Z,99.90
2019-05-20T04:56:42.658Z,99.90
2019-05-20T04:59:13.053Z,99.90
2019-05-20T05:01:43.915Z,99.90
2019-05-20T05:04:14.429Z,99.90
2019-05-20T05:06:45.092Z,99.90
2019-05-20T05:09:15.797Z,99.90
2019-05-20T05:11:46.370Z,99.90
2019-05-20T05:14:16.787Z,99.90
2019-05-20T05:16:47.275Z,99.90
2019-05-20T05:19:17.832Z,99.90
2019-05-20T05:21:48.323Z,99.90
2019-05-20T05:24:19.719Z,99.90
2019-05-20T05:26:50.361Z,99.90
2019-05-20T05:29:21.772Z,99.90
2019-05-20T05:31:52.251Z,99.90
2019-05-20T05:34:23.418Z,99.90
2019-05-20T05:36:54.190Z,99.90
2019-05-20T05:39:24.427Z,99.90
2019-05-20T05:41:54.886Z,99.90
2019-05-20T05:44:25.259Z,99.90
2019-05-20T05:46:55.596Z,99.90
2019-05-20T05:49:25.982Z,99.90
2019-05-20T05:51:56.362Z,99.90
2019-05-20T05:54:29.613Z,99.90
2019-05-20T05:57:00.808Z,99.90
2019-05-20T05:59:31.031Z,99.90
2019-05-20T06:02:01.486Z,99.90
2019-05-20T06:04:32.473Z,99.90
2019-05-20T06:07:03.122Z,99.90
2019-05-20T06:09:33.347Z,99.90
2019-05-20T06:12:03.698Z,99.90
2019-05-20T06:14:34.073Z,99.90
2019-05-20T06:17:04.380Z,99.90
2019-05-20T06:19:34.960Z,99.90
2019-05-20T06:22:05.518Z,99.90
2019-05-20T06:24:35.849Z,99.90
2019-05-20T06:27:06.174Z,99.90
2019-05-20T06:29:38.314Z,99.90
2019-05-20T06:32:08.591Z,99.90
2019-05-20T06:34:42.637Z,99.90
2019-05-20T06:37:13.284Z,99.90
2019-05-20T06:39:44.095Z,99.90
2019-05-20T06:42:14.891Z,99.90
2019-05-20T06:44:53.040Z,99.90
2019-05-20T06:47:17.997Z,99.90
2019-05-20T06:49:48.586Z,99.90
2019-05-20T06:52:34.889Z,99.90
2019-05-20T06:54:51.177Z,99.90
2019-05-20T06:57:23.910Z,99.90
2019-05-20T06:59:53.735Z,99.90
2019-05-20T07:02:24.444Z,99.90
2019-05-20T07:04:54.814Z,99.90
2019-05-20T07:07:25.938Z,99.90
2019-05-20T07:09:56.299Z,99.90
2019-05-20T07:12:40.160Z,99.90
2019-05-20T07:14:59.084Z,99.90
2019-05-20T07:17:29.356Z,99.90
2019-05-20T07:19:59.660Z,99.90
2019-05-20T07:22:31.969Z,99.90
2019-05-20T07:25:02.513Z,99.90
2019-05-20T07:27:33.112Z,99.90
2019-05-20T07:30:03.506Z,99.90
2019-05-20T07:32:34.354Z,99.90
2019-05-20T07:35:04.845Z,99.90
2019-05-20T07:37:35.950Z,99.90
2019-05-20T07:40:06.953Z,99.90
2019-05-20T07:42:37.610Z,99.90
2019-05-20T07:45:09.138Z,99.90
2019-05-20T07:47:39.567Z,99.10
2019-05-20T07:50:11.579Z,99.90
2019-05-20T07:52:42.174Z,99.90
2019-05-20T07:55:12.863Z,99.70
2019-05-20T07:57:45.743Z,99.90
2019-05-20T08:00:16.267Z,99.80
2019-05-20T08:02:47.066Z,99.70
2019-05-20T08:05:17.672Z,99.10
2019-05-20T08:07:52.275Z,99.20
2019-05-20T08:10:20.119Z,99.20
2019-05-20T08:12:50.611Z,99.10
2019-05-20T08:15:21.970Z,98.00
2019-05-20T08:17:53.627Z,97.50
2019-05-20T08:20:24.477Z,97.50
2019-05-20T08:22:55.230Z,98.00
2019-05-20T08:25:25.696Z,98.80
2019-05-20T08:27:57.556Z,98.40
2019-05-20T08:30:36.066Z,97.80
2019-05-20T08:33:07.924Z,97.60
2019-05-20T08:35:38.656Z,97.60
2019-05-20T08:38:09.527Z,97.20
2019-05-20T08:40:40.673Z,97.60
2019-05-20T08:43:11.917Z,97.80
2019-05-20T08:45:42.333Z,97.50
2019-05-20T08:48:12.709Z,97.00
2019-05-20T08:50:42.933Z,97.50
2019-05-20T08:53:13.370Z,96.80
2019-05-20T08:55:44.658Z,96.60
2019-05-20T08:58:14.893Z,96.90
2019-05-20T09:00:45.306Z,96.20
2019-05-20T09:03:16.000Z,96.70
2019-05-20T09:05:46.357Z,96.90
2019-05-20T09:08:16.772Z,96.80
2019-05-20T09:10:47.120Z,96.80
2019-05-20T09:13:17.570Z,95.90
2019-05-20T09:15:48.224Z,96.20
2019-05-20T09:18:18.751Z,95.60
2019-05-20T09:20:49.112Z,95.80
2019-05-20T09:23:19.596Z,95.90
2019-05-20T09:25:50.068Z,95.50
2019-05-20T09:28:20.569Z,95.90
2019-05-20T09:30:51.607Z,94.80
2019-05-20T09:33:22.250Z,94.50
2019-05-20T09:35:53.480Z,94.80
2019-05-20T09:38:23.977Z,95.20
2019-05-20T09:40:54.567Z,95.20
2019-05-20T09:43:25.442Z,94.90
2019-05-20T09:46:06.399Z,94.80
2019-05-20T09:48:27.913Z,94.70
2019-05-20T09:50:58.182Z,94.80
2019-05-20T09:53:28.588Z,94.40
2019-05-20T09:55:59.254Z,94.10
2019-05-20T09:58:30.378Z,94.80
2019-05-20T10:01:00.803Z,93.80
2019-05-20T10:03:31.386Z,94.60
2019-05-20T10:06:02.094Z,94.20
2019-05-20T10:08:39.039Z,94.20
2019-05-20T10:11:04.728Z,94.60
2019-05-20T10:13:35.298Z,94.40
2019-05-20T10:16:05.577Z,95.30
2019-05-20T10:18:38.679Z,94.90
2019-05-20T10:21:08.102Z,95.10
2019-05-20T10:23:38.551Z,95.10
2019-05-20T10:26:09.426Z,94.70
2019-05-20T10:28:42.198Z,94.70
2019-05-20T10:31:12.043Z,95.00
2019-05-20T10:33:42.420Z,95.40
2019-05-20T10:36:13.382Z,95.70
2019-05-20T10:38:57.761Z,95.00
2019-05-20T10:41:16.110Z,95.50
2019-05-20T10:43:46.557Z,95.50
2019-05-20T10:46:17.291Z,95.60
2019-05-20T10:48:48.011Z,95.30
2019-05-20T10:51:19.247Z,95.30
2019-05-20T10:53:49.748Z,95.30
2019-05-20T10:56:20.152Z,95.00
2019-05-20T10:58:50.521Z,95.60
2019-05-20T11:01:20.996Z,95.60
2019-05-20T11:03:51.520Z,94.60
2019-05-20T11:06:21.896Z,94.90
2019-05-20T11:08:52.296Z,94.40
2019-05-20T11:11:23.210Z,95.30
2019-05-20T11:13:53.437Z,94.10
2019-05-20T11:16:24.059Z,93.40
2019-05-20T11:18:55.668Z,94.00
2019-05-20T11:21:26.098Z,93.20
2019-05-20T11:23:56.678Z,92.80
2019-05-20T11:26:28.546Z,93.40
2019-05-20T11:29:00.146Z,93.30
2019-05-20T11:31:30.707Z,92.70
2019-05-20T11:34:01.103Z,93.90
2019-05-20T11:36:31.332Z,94.20
2019-05-20T11:39:01.912Z,93.50
2019-05-20T11:41:53.217Z,94.40
2019-05-20T11:44:04.773Z,94.50
2019-05-20T11:46:35.243Z,95.10
2019-05-20T11:49:05.621Z,94.30
2019-05-20T11:51:36.065Z,94.70
2019-05-20T11:54:06.506Z,95.20
2019-05-20T11:56:37.628Z,93.90
2019-05-20T11:59:08.064Z,94.20
2019-05-20T12:01:38.652Z,93.90
2019-05-20T12:04:09.290Z,94.40
2019-05-20T12:06:39.750Z,94.50
2019-05-20T12:09:10.216Z,94.00
2019-05-20T12:11:40.659Z,94.60
2019-05-20T12:14:10.904Z,95.30
2019-05-20T12:16:41.615Z,94.90
2019-05-20T12:19:12.198Z,94.30
2019-05-20T12:21:42.767Z,94.30
2019-05-20T12:24:13.822Z,94.00
2019-05-20T12:26:44.317Z,93.30
2019-05-20T12:29:15.355Z,92.50
2019-05-20T12:31:46.920Z,92.90
2019-05-20T12:34:18.168Z,92.40
2019-05-20T12:36:48.619Z,91.20
2019-05-20T12:39:19.077Z,91.70
2019-05-20T12:41:51.641Z,91.30
2019-05-20T12:44:22.060Z,91.30
2019-05-20T12:46:52.872Z,89.80
2019-05-20T12:49:23.934Z,87.20
2019-05-20T12:51:54.930Z,85.70
2019-05-20T12:54:25.892Z,85.80
2019-05-20T12:56:56.589Z,89.60
2019-05-20T12:59:27.930Z,86.80
2019-05-20T13:01:58.913Z,89.20
2019-05-20T13:04:48.975Z,90.90
2019-05-20T13:07:19.949Z,90.90
2019-05-20T13:09:51.031Z,91.00
2019-05-20T13:12:24.877Z,91.30
2019-05-20T13:14:55.679Z,91.20
2019-05-20T13:17:26.256Z,91.10
2019-05-20T13:19:56.839Z,91.10
2019-05-20T13:22:28.169Z,90.80
2019-05-20T13:24:58.575Z,91.10
2019-05-20T13:27:29.286Z,91.00
2019-05-20T13:29:59.774Z,90.90
2019-05-20T13:32:30.263Z,91.30
2019-05-20T13:35:00.603Z,91.00
2019-05-20T13:37:31.936Z,91.90
2019-05-20T13:40:03.338Z,92.20
2019-05-20T13:42:34.530Z,91.60
2019-05-20T13:45:05.216Z,91.20
2019-05-20T13:47:36.531Z,91.70
2019-05-20T13:50:07.805Z,91.70
2019-05-20T13:52:38.404Z,92.30
2019-05-20T13:55:09.111Z,92.50
2019-05-20T13:57:39.680Z,92.90
2019-05-20T14:00:11.172Z,92.90
2019-05-20T14:02:41.429Z,93.00
2019-05-20T14:05:12.646Z,92.10
2019-05-20T14:07:43.020Z,92.60
2019-05-20T14:10:22.531Z,92.50
2019-05-20T14:12:53.920Z,92.60
2019-05-20T14:15:24.306Z,92.40
2019-05-20T14:17:54.703Z,92.60
2019-05-20T14:20:25.256Z,92.60
2019-05-20T14:22:56.171Z,92.80
2019-05-20T14:25:29.087Z,93.10
2019-05-20T14:27:59.016Z,93.40
2019-05-20T14:30:29.524Z,92.80
2019-05-20T14:33:00.044Z,93.50
2019-05-20T14:35:30.375Z,92.20
2019-05-20T14:38:01.300Z,92.20
2019-05-20T14:40:31.637Z,91.60
2019-05-20T14:43:02.150Z,91.80
2019-05-20T14:45:32.611Z,91.40
2019-05-20T14:48:04.454Z,91.40
2019-05-20T14:50:34.971Z,91.70
2019-05-20T14:53:05.500Z,91.70
2019-05-20T14:55:42.292Z,91.40
2019-05-20T14:58:08.009Z,90.30
2019-05-20T15:00:40.611Z,90.70
2019-05-20T15:03:10.987Z,90.30
2019-05-20T15:05:41.549Z,91.20
2019-05-20T15:08:12.036Z,91.20
2019-05-20T15:10:42.964Z,91.30
2019-05-20T15:13:13.423Z,91.20
2019-05-20T15:15:48.097Z,91.20
2019-05-20T15:18:17.731Z,91.20
2019-05-20T15:20:48.161Z,91.90
2019-05-20T15:23:19.661Z,91.90
2019-05-20T15:25:50.094Z,91.40
2019-05-20T15:28:20.518Z,91.00
2019-05-20T15:30:50.910Z,91.20
2019-05-20T15:33:21.423Z,92.00
2019-05-20T15:35:53.225Z,92.80
2019-05-20T15:38:23.606Z,92.80
2019-05-20T15:40:54.316Z,92.90
2019-05-20T15:43:24.560Z,92.30
2019-05-20T15:45:55.454Z,92.20
2019-05-20T15:48:28.398Z,92.70
2019-05-20T15:50:58.830Z,93.20
2019-05-20T15:53:29.883Z,93.50
2019-05-20T15:56:01.085Z,93.10
2019-05-20T15:58:31.404Z,93.20
2019-05-20T16:01:02.798Z,93.40
2019-05-20T16:03:33.264Z,93.20
2019-05-20T16:06:03.680Z,93.30
2019-05-20T16:08:34.793Z,93.30
2019-05-20T16:11:06.836Z,93.40
2019-05-20T16:13:37.332Z,92.20
2019-05-20T16:16:12.255Z,91.80
2019-05-20T16:18:41.301Z,91.20
2019-05-20T16:21:12.691Z,91.60
2019-05-20T16:23:43.075Z,91.50
2019-05-20T16:26:14.169Z,91.50
2019-05-20T16:28:45.434Z,91.80
2019-05-20T16:31:16.022Z,91.70
2019-05-20T16:33:46.633Z,91.80
2019-05-20T16:36:18.347Z,92.30
2019-05-20T16:38:48.805Z,92.70
2019-05-20T16:41:19.503Z,92.70
2019-05-20T16:43:50.041Z,92.70
2019-05-20T16:46:20.538Z,92.60
2019-05-20T16:48:50.984Z,92.90
2019-05-20T16:51:22.824Z,93.60
2019-05-20T16:53:54.347Z,92.90
2019-05-20T16:56:25.162Z,93.50
2019-05-20T16:58:55.546Z,93.30
2019-05-20T17:01:25.984Z,93.70
2019-05-20T17:03:57.145Z,93.30
2019-05-20T17:06:27.721Z,93.90
2019-05-20T17:08:58.086Z,94.10
2019-05-20T17:11:28.586Z,94.50
2019-05-20T17:13:59.074Z,95.20
2019-05-20T17:16:29.413Z,96.20
2019-05-20T17:19:00.160Z,96.40
2019-05-20T17:21:31.202Z,96.00
2019-05-20T17:24:01.798Z,96.60
2019-05-20T17:26:32.243Z,97.20
2019-05-20T17:29:03.731Z,97.20
2019-05-20T17:31:34.509Z,97.40
2019-05-20T17:34:05.200Z,97.90
2019-05-20T17:36:35.858Z,98.30
2019-05-20T17:39:08.225Z,98.00
2019-05-20T17:41:39.011Z,97.80
2019-05-20T17:44:09.470Z,98.30
2019-05-20T17:46:41.098Z,98.40
2019-05-20T17:49:11.634Z,98.60
2019-05-20T17:51:43.397Z,98.80
2019-05-20T17:54:14.012Z,98.90
2019-05-20T17:56:44.818Z,98.90
2019-05-20T17:59:15.360Z,98.90
2019-05-20T18:01:45.984Z,99.90
2019-05-20T18:04:16.392Z,99.90
2019-05-20T18:06:46.896Z,99.90
2019-05-20T18:09:18.297Z,99.90
2019-05-20T18:11:48.961Z,99.90
2019-05-20T18:14:19.515Z,99.90
2019-05-20T18:16:51.348Z,99.90
2019-05-20T18:19:21.953Z,99.90
2019-05-20T18:21:53.496Z,99.90
2019-05-20T18:24:24.186Z,99.90
2019-05-20T18:26:54.706Z,99.90
2019-05-20T18:29:25.613Z,99.90
2019-05-20T18:31:56.275Z,99.90
2019-05-20T18:34:29.920Z,99.90
2019-05-20T18:37:01.704Z,99.90
2019-05-20T18:39:32.510Z,99.90
2019-05-20T18:42:05.182Z,99.90
2019-05-20T18:44:35.783Z,99.90
2019-05-20T18:47:09.283Z,99.90
2019-05-20T18:49:41.301Z,99.90
2019-05-20T18:52:11.696Z,99.90
2019-05-20T18:54:42.221Z,99.90
2019-05-20T18:57:12.596Z,99.90
2019-05-20T18:59:44.561Z,99.90
2019-05-20T19:02:15.299Z,99.90
2019-05-20T19:04:45.834Z,99.90
2019-05-20T19:07:16.301Z,99.90
2019-05-20T19:09:46.790Z,99.90
2019-05-20T19:12:17.312Z,99.90
2019-05-20T19:14:47.748Z,99.90
2019-05-20T19:17:18.259Z,99.90
2019-05-20T19:19:48.699Z,99.90
2019-05-20T19:22:19.401Z,99.90
2019-05-20T19:24:50.455Z,99.90
2019-05-20T19:27:20.875Z,99.90
2019-05-20T19:30:05.425Z,99.90
2019-05-20T19:32:36.005Z,99.90
2019-05-20T19:35:06.932Z,99.90
2019-05-20T19:37:38.503Z,99.90
2019-05-20T19:40:09.312Z,99.90
2019-05-20T19:42:39.965Z,99.90
2019-05-20T19:45:11.934Z,99.90
2019-05-20T19:47:42.620Z,99.90
2019-05-20T19:50:14.173Z,99.90
2019-05-20T19:52:45.601Z,99.90
2019-05-20T19:55:19.069Z,99.90
2019-05-20T19:57:50.340Z,99.90
2019-05-20T20:00:21.209Z,99.90
2019-05-20T20:02:51.973Z,99.90
2019-05-20T20:05:23.329Z,99.90
2019-05-20T20:07:56.015Z,99.90
2019-05-20T20:10:27.086Z,99.90
2019-05-20T20:12:57.903Z,99.90
2019-05-20T20:15:28.584Z,99.90
2019-05-20T20:17:59.629Z,99.90
2019-05-20T20:20:31.825Z,99.90
2019-05-20T20:23:02.711Z,99.90
2019-05-20T20:25:33.204Z,99.90
2019-05-20T20:28:04.994Z,99.90
2019-05-20T20:30:35.791Z,99.90
2019-05-20T20:33:06.743Z,99.90
2019-05-20T20:35:38.549Z,99.90
2019-05-20T20:38:10.280Z,99.90
2019-05-20T20:40:41.207Z,99.90
2019-05-20T20:43:11.744Z,99.90
2019-05-20T20:45:44.637Z,99.90
2019-05-20T20:48:34.632Z,99.90
2019-05-20T20:51:06.389Z,99.90
2019-05-20T20:53:37.276Z,99.90
2019-05-20T20:56:23.791Z,99.90
2019-05-20T20:58:40.969Z,99.90
2019-05-20T21:01:11.697Z,99.90
2019-05-20T21:03:42.190Z,99.90
2019-05-20T21:06:12.684Z,99.90
2019-05-20T21:08:43.251Z,99.90
2019-05-20T21:11:13.737Z,99.90
2019-05-20T21:13:44.571Z,99.90
2019-05-20T21:16:15.023Z,99.90
2019-05-20T21:18:45.626Z,99.90
2019-05-20T21:21:16.195Z,99.90
2019-05-20T21:23:46.612Z,99.90
2019-05-20T21:26:17.069Z,99.90
2019-05-20T21:28:47.517Z,99.90
2019-05-20T21:31:18.642Z,99.90
2019-05-20T21:33:49.144Z,99.90
2019-05-20T21:36:20.007Z,99.90
2019-05-20T21:38:50.514Z,99.90
2019-05-20T21:41:21.300Z,99.90
2019-05-20T21:43:51.760Z,99.90
2019-05-20T21:46:24.675Z,99.90
2019-05-20T21:48:55.279Z,99.90
2019-05-20T21:51:26.034Z,99.90
2019-05-20T21:53:56.641Z,99.90
2019-05-20T21:56:27.396Z,99.90
2019-05-20T21:58:57.802Z,99.90
2019-05-20T22:01:28.387Z,99.90
2019-05-20T22:03:59.604Z,99.90
2019-05-20T22:06:30.512Z,99.90
2019-05-20T22:09:01.033Z,99.90
2019-05-20T22:11:31.537Z,99.90
2019-05-20T22:14:02.319Z,99.90
2019-05-20T22:16:33.782Z,99.90
2019-05-20T22:19:05.881Z,99.90
2019-05-20T22:21:49.049Z,99.90
2019-05-20T22:24:20.225Z,99.90
2019-05-20T22:26:50.493Z,99.90
2019-05-20T22:29:20.824Z,99.90
2019-05-20T22:31:51.157Z,99.90
2019-05-20T22:34:21.497Z,99.90
2019-05-20T22:36:51.700Z,99.90
2019-05-20T22:39:22.111Z,99.90
2019-05-20T22:41:52.429Z,99.90
2019-05-20T22:44:23.064Z,99.90
2019-05-20T22:46:53.403Z,99.90
2019-05-20T22:49:25.007Z,99.90
2019-05-20T22:51:56.726Z,99.90
2019-05-20T22:54:27.072Z,99.90
2019-05-20T22:56:57.566Z,99.90
2019-05-20T22:59:27.938Z,99.90
2019-05-20T23:01:58.601Z,99.90
2019-05-20T23:04:29.205Z,99.90
2019-05-20T23:06:59.775Z,99.90
2019-05-20T23:09:33.094Z,99.90
2019-05-20T23:12:03.341Z,99.90
2019-05-20T23:14:53.017Z,99.90
2019-05-20T23:17:23.425Z,99.90
2019-05-20T23:19:54.359Z,99.90
2019-05-20T23:22:24.622Z,99.90
2019-05-20T23:24:55.643Z,99.90
2019-05-20T23:27:25.897Z,99.90
2019-05-20T23:29:56.270Z,99.90
2019-05-20T23:32:26.539Z,99.90
2019-05-20T23:34:57.227Z,99.90
2019-05-20T23:37:27.705Z,99.90
2019-05-20T23:39:59.053Z,99.50
2019-05-20T23:42:29.537Z,99.50
2019-05-20T23:45:00.863Z,99.50
2019-05-20T23:47:31.920Z,99.50
2019-05-20T23:50:02.401Z,99.30
2019-05-20T23:52:32.859Z,99.10
2019-05-20T23:55:03.231Z,99.20
2019-05-20T23:57:33.700Z,99.10
